Time;durP1;ratioP1;P1;durP2;ratioP2;P2;SDS_P1;SDS_P2;PMS_P1;PMS_P2;Temp;Humidity;BMP_temperature;BMP_pressure;BME280_temperature;BME280_humidity;BME280_pressure;Samples;Min_cycle;Max_cycle;Signal;HPM_P1;HPM_P2
2023/02/15 00:01:46;;;;;;;;;;;;;;;4.54;74.58;102758.72;4169911;28;20027;-66
2023/02/15 00:03:48;;;;;;;;;;;;;;;4.50;74.51;102763.41;4171764;28;20027;-66
2023/02/15 00:05:50;;;;;;;;;;;;;;;4.47;74.98;102761.75;4171531;28;20037;-67
2023/02/15 00:07:52;;;;;;;;;;;;;;;4.47;74.60;102759.06;4168705;28;20028;-66
2023/02/15 00:09:54;;;;;;;;;;;;;;;4.47;74.82;102752.88;4171650;28;20079;-66
2023/02/15 00:11:56;;;;;;;;;;;;;;;4.43;74.39;102759.31;4171274;28;20480;-65
2023/02/15 00:13:59;;;;;;;;;;;;;;;4.35;74.38;102753.56;4171984;28;20368;-66
2023/02/15 00:16:02;;;;;;;;;;;;;;;4.27;74.50;102754.84;4167935;28;20019;-66
2023/02/15 00:18:04;;;;;;;;;;;;;;;4.21;74.77;102751.66;4169859;28;20019;-66
2023/02/15 00:20:07;;;;;;;;;;;;;;;4.17;74.94;102753.66;4171861;28;20031;-66
2023/02/15 00:22:08;;;;;;;;;;;;;;;4.20;75.08;102747.25;4172391;28;20032;-66
2023/02/15 00:24:11;;;;;;;;;;;;;;;4.21;74.93;102748.97;4168827;28;20012;-66
2023/02/15 00:26:13;;;;;;;;;;;;;;;4.18;74.61;102747.31;4172011;28;20017;-65
2023/02/15 00:28:18;;;;;;;;;;;;;;;4.12;74.75;102740.53;4172314;28;20012;-65
2023/02/15 00:30:21;;;;;;;;;;;;;;;4.04;74.79;102741.91;4170757;28;20011;-66
2023/02/15 00:32:23;;;;;;;;;;;;;;;3.97;74.97;102741.38;4170988;28;20020;-66
2023/02/15 00:34:25;;;;;;;;;;;;;;;3.92;75.10;102741.63;4170610;28;20446;-65
2023/02/15 00:36:27;;;;;;;;;;;;;;;3.90;75.25;102737.31;4172035;28;20015;-66
2023/02/15 00:38:30;;;;;;;;;;;;;;;3.88;75.57;102734.72;4171974;28;20032;-65
2023/02/15 00:40:32;;;;;;;;;;;;;;;3.87;75.19;102742.81;4177684;28;20502;-65
2023/02/15 00:42:34;;;;;;;;;;;;;;;3.81;75.11;102736.00;4171306;28;20028;-66
2023/02/15 00:44:36;;;;;;;;;;;;;;;3.78;75.28;102728.16;4169863;28;20016;-66
2023/02/15 00:46:39;;;;;;;;;;;;;;;3.75;75.46;102733.69;4162632;28;20015;-65
2023/02/15 00:48:44;;;;;;;;;;;;;;;3.79;75.73;102737.88;4172081;28;20024;-65
2023/02/15 00:50:46;;;;;;;;;;;;;;;3.84;75.47;102732.28;4171011;28;20008;-65
2023/02/15 00:52:49;;;;;;;;;;;;;;;3.88;75.51;102726.69;4170330;28;20459;-65
2023/02/15 00:54:51;;;;;;;;;;;;;;;3.92;75.39;102730.09;4171251;28;19965;-65
2023/02/15 00:56:53;;;;;;;;;;;;;;;3.93;75.42;102723.78;4171738;28;20092;-66
2023/02/15 00:58:55;;;;;;;;;;;;;;;3.95;75.36;102728.09;4169949;28;20028;-66
2023/02/15 01:01:02;;;;;;;;;;;;;;;3.93;74.88;102724.66;4170679;28;20462;-66
2023/02/15 01:03:06;;;;;;;;;;;;;;;3.94;74.86;102725.50;4167962;28;20024;-65
2023/02/15 01:05:08;;;;;;;;;;;;;;;3.93;74.74;102726.44;4168513;28;20015;-66
2023/02/15 01:07:10;;;;;;;;;;;;;;;3.89;74.24;102722.22;4172188;28;20363;-66
2023/02/15 01:09:14;;;;;;;;;;;;;;;3.84;74.28;102724.28;4171592;28;20015;-66
2023/02/15 01:11:21;;;;;;;;;;;;;;;3.78;74.79;102721.00;4170470;28;20575;-66
2023/02/15 01:13:23;;;;;;;;;;;;;;;3.75;74.46;102723.84;4170790;28;20020;-66
2023/02/15 01:15:25;;;;;;;;;;;;;;;3.70;74.35;102730.38;4170826;28;20367;-66
2023/02/15 01:17:28;;;;;;;;;;;;;;;3.64;74.46;102720.00;4171230;28;20020;-66
2023/02/15 01:19:32;;;;;;;;;;;;;;;3.61;74.78;102721.06;4171257;28;20501;-66
2023/02/15 01:21:35;;;;;;;;;;;;;;;3.59;74.96;102717.63;4170196;28;20059;-66
2023/02/15 01:23:38;;;;;;;;;;;;;;;3.57;74.72;102720.38;4170972;28;20020;-66
2023/02/15 01:25:41;;;;;;;;;;;;;;;3.50;74.46;102712.75;4186522;28;20390;-65
2023/02/15 01:27:43;;;;;;;;;;;;;;;3.45;74.73;102707.66;4169517;28;20024;-66
2023/02/15 01:29:45;;;;;;;;;;;;;;;3.45;74.56;102704.09;4170222;28;20028;-66
2023/02/15 01:31:46;;;;;;;;;;;;;;;3.43;74.68;102710.41;4170635;28;20450;-65
2023/02/15 01:33:50;;;;;;;;;;;;;;;3.42;74.73;102706.00;4170016;28;20019;-66
2023/02/15 01:35:57;;;;;;;;;;;;;;;3.37;74.69;102699.19;4170602;28;20368;-66
2023/02/15 01:37:59;;;;;;;;;;;;;;;3.33;74.59;102697.63;4165133;28;20019;-66
2023/02/15 01:40:02;;;;;;;;;;;;;;;3.29;74.55;102688.94;4169749;28;20032;-65
2023/02/15 01:42:04;;;;;;;;;;;;;;;3.25;74.58;102688.22;4170773;28;20020;-66
2023/02/15 01:44:21;;;;;;;;;;;;;;;3.17;74.44;102676.22;4169737;28;20011;-65
2023/02/15 01:46:24;;;;;;;;;;;;;;;3.07;74.79;102681.16;4163330;28;21256;-65
2023/02/15 01:48:27;;;;;;;;;;;;;;;3.01;74.85;102684.16;4170406;28;20011;-66
2023/02/15 01:50:29;;;;;;;;;;;;;;;2.97;75.34;102682.59;4169029;28;20031;-66
2023/02/15 01:52:33;;;;;;;;;;;;;;;2.97;75.36;102675.44;4170337;28;20534;-66
2023/02/15 01:54:35;;;;;;;;;;;;;;;2.92;75.17;102671.31;4169762;28;20060;-66
2023/02/15 01:56:40;;;;;;;;;;;;;;;2.88;75.16;102662.56;4170745;28;20017;-66
2023/02/15 01:58:42;;;;;;;;;;;;;;;2.82;75.59;102661.09;4169548;28;20016;-66
2023/02/15 02:00:45;;;;;;;;;;;;;;;2.78;75.74;102664.88;4164060;28;20024;-66
2023/02/15 02:02:47;;;;;;;;;;;;;;;2.77;76.02;102664.94;4170431;28;20024;-65
2023/02/15 02:04:51;;;;;;;;;;;;;;;2.77;76.22;102663.13;4169442;28;20032;-65
2023/02/15 02:06:54;;;;;;;;;;;;;;;2.80;76.47;102654.13;4169816;28;20027;-66
2023/02/15 02:08:57;;;;;;;;;;;;;;;2.83;76.48;102661.97;4170478;28;20451;-65
2023/02/15 02:11:00;;;;;;;;;;;;;;;2.82;76.27;102655.78;4168522;28;20011;-66
2023/02/15 02:13:03;;;;;;;;;;;;;;;2.84;76.26;102653.88;4170574;28;20435;-66
2023/02/15 02:15:05;;;;;;;;;;;;;;;2.82;76.40;102650.44;4169974;28;20008;-65
2023/02/15 02:17:09;;;;;;;;;;;;;;;2.80;76.43;102649.63;4170413;28;20032;-65
2023/02/15 02:19:34;;;;;;;;;;;;;;;2.79;76.29;102647.94;4170659;28;20023;-65
2023/02/15 02:21:49;;;;;;;;;;;;;;;2.78;76.53;102640.84;4118860;28;20341;-66
2023/02/15 02:23:52;;;;;;;;;;;;;;;2.77;76.33;102638.25;4166379;28;20482;-68
2023/02/15 02:26:06;;;;;;;;;;;;;;;2.76;76.22;102645.41;4170422;28;20044;-67
2023/02/15 02:28:11;;;;;;;;;;;;;;;2.71;76.33;102644.75;4170869;28;20016;-65
2023/02/15 02:30:18;;;;;;;;;;;;;;;2.63;76.46;102637.19;4169450;28;20035;-67
2023/02/15 02:32:33;;;;;;;;;;;;;;;2.69;76.85;102647.50;4177539;28;20028;-67
2023/02/15 02:34:37;;;;;;;;;;;;;;;2.73;76.88;102642.03;4177394;28;20024;-66
2023/02/15 02:36:41;;;;;;;;;;;;;;;2.74;77.16;102635.75;4165990;28;20024;-67
2023/02/15 02:38:46;;;;;;;;;;;;;;;2.77;77.25;102635.59;4169139;28;20024;-68
2023/02/15 02:40:50;;;;;;;;;;;;;;;2.78;77.24;102643.53;4167902;28;20467;-67
2023/02/15 02:42:55;;;;;;;;;;;;;;;2.82;77.42;102638.88;4171345;28;20015;-68
2023/02/15 02:44:58;;;;;;;;;;;;;;;2.84;77.04;102632.53;4170542;28;20028;-68
2023/02/15 02:47:02;;;;;;;;;;;;;;;2.86;77.02;102627.09;4168291;28;20422;-67
2023/02/15 02:49:04;;;;;;;;;;;;;;;2.87;76.95;102627.03;4170269;28;20051;-67
2023/02/15 02:51:07;;;;;;;;;;;;;;;2.89;76.83;102621.59;4170333;28;20028;-67
2023/02/15 02:53:09;;;;;;;;;;;;;;;2.89;76.72;102625.13;4166282;28;20019;-68
2023/02/15 02:55:13;;;;;;;;;;;;;;;2.89;76.54;102611.78;4169418;28;20036;-67
2023/02/15 02:57:15;;;;;;;;;;;;;;;2.90;76.38;102610.00;4169163;28;20019;-68
2023/02/15 02:59:17;;;;;;;;;;;;;;;2.89;76.46;102611.78;4169999;28;20019;-67
2023/02/15 03:01:21;;;;;;;;;;;;;;;2.85;76.15;102606.69;4170492;28;20015;-65
2023/02/15 03:03:26;;;;;;;;;;;;;;;2.82;76.20;102605.06;4169761;28;20023;-67
2023/02/15 03:05:28;;;;;;;;;;;;;;;2.82;76.27;102613.06;4184466;28;20162;-68
2023/02/15 03:07:32;;;;;;;;;;;;;;;2.82;76.46;102613.06;4165279;28;20016;-68
2023/02/15 03:09:41;;;;;;;;;;;;;;;2.84;76.26;102605.84;4165427;28;20013;-68
2023/02/15 03:11:44;;;;;;;;;;;;;;;2.84;76.22;102608.50;4184349;28;20019;-68
2023/02/15 03:13:46;;;;;;;;;;;;;;;2.86;76.01;102609.28;4165342;28;20061;-67
2023/02/15 03:18:08;;;;;;;;;;;;;;;2.85;75.72;102598.69;4169987;28;20031;-68
2023/02/15 03:20:12;;;;;;;;;;;;;;;2.82;75.91;102604.19;4176713;28;20028;-68
2023/02/15 03:22:14;;;;;;;;;;;;;;;2.80;76.02;102593.59;4170201;28;20020;-67
2023/02/15 03:24:18;;;;;;;;;;;;;;;2.83;75.78;102592.56;4173679;28;20015;-68
2023/02/15 03:26:23;;;;;;;;;;;;;;;2.82;75.67;102591.72;4171621;28;20383;-67
2023/02/15 03:28:26;;;;;;;;;;;;;;;2.79;75.62;102593.66;4171562;28;20016;-67
2023/02/15 03:30:28;;;;;;;;;;;;;;;2.75;75.77;102594.78;4168757;28;20047;-67
2023/02/15 03:32:34;;;;;;;;;;;;;;;2.70;75.73;102598.56;4173116;28;20020;-67
2023/02/15 03:34:36;;;;;;;;;;;;;;;2.70;75.72;102595.88;4170367;28;20020;-67
2023/02/15 03:36:40;;;;;;;;;;;;;;;2.70;75.83;102603.03;4173412;28;20015;-67
2023/02/15 03:38:56;;;;;;;;;;;;;;;2.69;76.13;102601.31;4174150;28;20019;-66
2023/02/15 03:41:12;;;;;;;;;;;;;;;2.66;75.84;102604.13;4172537;28;20008;-68
2023/02/15 03:43:15;;;;;;;;;;;;;;;2.67;75.75;102603.19;4173346;28;20378;-68
2023/02/15 03:45:18;;;;;;;;;;;;;;;2.67;75.65;102590.72;4172855;28;20028;-68
2023/02/15 03:47:20;;;;;;;;;;;;;;;2.64;75.51;102598.03;4172915;28;20032;-67
2023/02/15 03:49:23;;;;;;;;;;;;;;;2.61;75.58;102593.69;4172609;28;20007;-67
2023/02/15 03:51:36;;;;;;;;;;;;;;;2.57;75.56;102588.59;4172485;28;20024;-68
2023/02/15 03:53:37;;;;;;;;;;;;;;;2.55;75.25;102590.50;4173294;28;20019;-68
2023/02/15 03:55:39;;;;;;;;;;;;;;;2.50;75.43;102580.06;4171533;28;20364;-67
2023/02/15 04:02:23;;;;;;;;;;;;;;;2.41;75.23;102581.38;4172562;28;20016;-67
2023/02/15 04:04:26;;;;;;;;;;;;;;;2.36;75.30;102583.44;4171536;28;20024;-67
2023/02/15 04:06:28;;;;;;;;;;;;;;;2.34;75.12;102577.31;4169852;28;20051;-68
2023/02/15 04:10:55;;;;;;;;;;;;;;;2.32;75.20;102571.19;4171815;28;20351;-65
2023/02/15 04:12:59;;;;;;;;;;;;;;;2.28;75.08;102566.97;4172885;28;20015;-67
2023/02/15 04:17:20;;;;;;;;;;;;;;;2.24;75.17;102570.72;4172128;28;20051;-68
2023/02/15 04:26:21;;;;;;;;;;;;;;;2.14;74.92;102557.84;4172267;28;19929;-67
2023/02/15 04:28:24;;;;;;;;;;;;;;;2.11;74.94;102551.81;4169678;28;20031;-67
2023/02/15 04:30:26;;;;;;;;;;;;;;;2.07;75.06;102553.78;4171995;28;20025;-67
2023/02/15 04:32:28;;;;;;;;;;;;;;;2.06;75.11;102553.84;4172492;28;20016;-68
2023/02/15 04:34:30;;;;;;;;;;;;;;;2.08;75.19;102559.97;4172566;28;20039;-68
2023/02/15 04:36:32;;;;;;;;;;;;;;;2.07;75.13;102556.44;4169921;28;20023;-67
2023/02/15 04:38:34;;;;;;;;;;;;;;;2.04;74.92;102553.94;4171439;28;20023;-67
2023/02/15 04:40:36;;;;;;;;;;;;;;;2.03;74.91;102544.19;4171431;28;20012;-67
2023/02/15 04:42:38;;;;;;;;;;;;;;;2.01;75.09;102546.09;4167457;28;20365;-65
2023/02/15 04:44:41;;;;;;;;;;;;;;;2.01;75.04;102547.88;4170115;28;20016;-67
2023/02/15 04:46:43;;;;;;;;;;;;;;;2.02;75.29;102552.28;4171643;28;20047;-67
2023/02/15 04:48:45;;;;;;;;;;;;;;;2.04;75.21;102545.94;4171900;28;20375;-66
2023/02/15 04:50:47;;;;;;;;;;;;;;;2.04;75.10;102542.38;4186767;28;20007;-67
2023/02/15 04:52:49;;;;;;;;;;;;;;;2.00;74.93;102544.34;4171675;28;20442;-69
2023/02/15 04:54:51;;;;;;;;;;;;;;;1.99;75.07;102539.94;4170473;28;20035;-68
2023/02/15 04:56:53;;;;;;;;;;;;;;;1.96;75.23;102541.00;4170095;28;20015;-68
2023/02/15 04:58:55;;;;;;;;;;;;;;;2.00;75.36;102530.19;4172218;28;20027;-69
2023/02/15 05:00:58;;;;;;;;;;;;;;;1.96;75.07;102529.47;4170925;28;20003;-67
2023/02/15 05:03:00;;;;;;;;;;;;;;;1.94;75.07;102526.88;4170838;28;20028;-68
2023/02/15 05:05:02;;;;;;;;;;;;;;;1.92;75.13;102519.91;4169712;28;20027;-66
2023/02/15 05:07:04;;;;;;;;;;;;;;;1.90;75.22;102521.78;4171206;28;20443;-67
2023/02/15 05:09:06;;;;;;;;;;;;;;;1.87;75.13;102513.94;4170789;28;20033;-67
2023/02/15 05:11:08;;;;;;;;;;;;;;;1.82;75.45;102514.19;4168673;28;20024;-68
2023/02/15 05:13:10;;;;;;;;;;;;;;;1.79;75.55;102511.66;4171415;28;20028;-67
2023/02/15 05:15:12;;;;;;;;;;;;;;;1.83;75.68;102507.03;4170709;28;20027;-67
2023/02/15 05:17:16;;;;;;;;;;;;;;;1.82;75.76;102506.19;4168741;28;20024;-68
2023/02/15 05:19:17;;;;;;;;;;;;;;;1.83;75.75;102507.03;4170305;28;20019;-67
2023/02/15 05:21:19;;;;;;;;;;;;;;;1.79;75.96;102504.53;4167161;28;20393;-68
2023/02/15 05:23:21;;;;;;;;;;;;;;;1.75;76.21;102497.59;4170599;28;20011;-68
2023/02/15 05:30:03;;;;;;;;;;;;;;;1.67;76.44;102502.47;4170692;28;20019;-68
2023/02/15 05:32:05;;;;;;;;;;;;;;;1.56;76.87;102500.31;4170435;28;20025;-67
2023/02/15 05:34:10;;;;;;;;;;;;;;;1.46;77.23;102499.06;4169301;28;20019;-67
2023/02/15 05:36:13;;;;;;;;;;;;;;;1.39;78.02;102501.13;4169799;28;20008;-67
2023/02/15 05:38:15;;;;;;;;;;;;;;;1.36;78.23;102501.28;4171310;28;20012;-68
2023/02/15 05:40:17;;;;;;;;;;;;;;;1.31;78.12;102499.81;4169983;28;20012;-67
2023/02/15 05:42:20;;;;;;;;;;;;;;;1.26;78.35;102508.00;4170997;28;20035;-67
2023/02/15 05:44:22;;;;;;;;;;;;;;;1.15;78.27;102497.00;4172287;28;20458;-67
2023/02/15 05:46:23;;;;;;;;;;;;;;;1.07;79.07;102508.00;4169512;28;20020;-67
2023/02/15 05:48:26;;;;;;;;;;;;;;;1.05;79.28;102507.19;4171244;28;20015;-68
2023/02/15 05:50:29;;;;;;;;;;;;;;;1.01;79.52;102495.00;4169718;28;20020;-67
2023/02/15 05:52:34;;;;;;;;;;;;;;;1.03;80.23;102496.63;4167846;28;20020;-68
2023/02/15 05:54:37;;;;;;;;;;;;;;;1.08;79.86;102502.63;4170703;28;20027;-68
2023/02/15 05:56:39;;;;;;;;;;;;;;;1.12;79.53;102498.00;4169262;28;20036;-68
2023/02/15 05:58:41;;;;;;;;;;;;;;;1.14;79.63;102505.91;4171829;28;20024;-68
2023/02/15 06:00:43;;;;;;;;;;;;;;;1.10;79.54;102502.56;4168389;28;20027;-68
2023/02/15 06:02:45;;;;;;;;;;;;;;;1.11;79.67;102508.72;4167684;28;20052;-68
2023/02/15 06:04:47;;;;;;;;;;;;;;;1.07;79.67;102498.22;4169088;28;19995;-68
2023/02/15 06:06:50;;;;;;;;;;;;;;;1.03;79.81;102498.44;4160073;28;20031;-67
2023/02/15 06:08:52;;;;;;;;;;;;;;;0.94;80.26;102502.41;4166121;28;20016;-69
2023/02/15 06:10:54;;;;;;;;;;;;;;;0.94;80.62;102505.06;4169247;28;20443;-68
2023/02/15 06:12:56;;;;;;;;;;;;;;;0.93;80.65;102495.34;4169499;28;20015;-68
2023/02/15 06:14:58;;;;;;;;;;;;;;;0.88;81.19;102500.88;4166444;28;20035;-67
2023/02/15 06:17:00;;;;;;;;;;;;;;;0.90;81.01;102499.00;4165177;28;20016;-68
2023/02/15 06:19:02;;;;;;;;;;;;;;;0.91;81.38;102497.22;4168022;28;20438;-67
2023/02/15 06:21:04;;;;;;;;;;;;;;;0.94;81.40;102497.09;4167961;28;20031;-68
2023/02/15 06:23:08;;;;;;;;;;;;;;;0.99;81.09;102502.19;4168897;28;20027;-67
2023/02/15 06:25:11;;;;;;;;;;;;;;;1.00;81.12;102504.75;4173499;28;20039;-67
2023/02/15 06:27:15;;;;;;;;;;;;;;;0.97;80.67;102506.72;4168371;28;20063;-66
2023/02/15 06:29:17;;;;;;;;;;;;;;;0.96;80.67;102502.34;4170723;28;20021;-66
2023/02/15 06:31:19;;;;;;;;;;;;;;;0.91;80.70;102499.88;4168631;28;20032;-66
2023/02/15 06:33:21;;;;;;;;;;;;;;;0.86;80.40;102494.78;4168697;28;20029;-66
2023/02/15 06:35:23;;;;;;;;;;;;;;;0.78;80.85;102486.25;4169889;28;20642;-66
2023/02/15 06:37:25;;;;;;;;;;;;;;;0.79;81.40;102485.34;4168334;28;20346;-66
2023/02/15 06:39:28;;;;;;;;;;;;;;;0.80;81.39;102494.19;4167161;28;20038;-66
2023/02/15 06:41:31;;;;;;;;;;;;;;;0.73;81.67;102492.75;4169179;28;20016;-66
2023/02/15 06:43:33;;;;;;;;;;;;;;;0.73;81.84;102490.09;4168679;28;20377;-66
2023/02/15 06:45:35;;;;;;;;;;;;;;;0.74;82.09;102492.69;4168685;28;20011;-66
2023/02/15 06:47:37;;;;;;;;;;;;;;;0.74;82.02;102492.69;4168549;28;20027;-66
2023/02/15 06:49:39;;;;;;;;;;;;;;;0.69;81.93;102492.88;4168637;28;20385;-66
2023/02/15 06:51:41;;;;;;;;;;;;;;;0.68;82.21;102492.97;4168759;28;20031;-67
2023/02/15 06:53:43;;;;;;;;;;;;;;;0.70;82.36;102483.09;4169971;28;20031;-66
2023/02/15 06:55:47;;;;;;;;;;;;;;;0.71;82.51;102492.81;4168779;28;20016;-66
2023/02/15 06:57:49;;;;;;;;;;;;;;;0.71;82.33;102491.00;4172010;28;20450;-66
2023/02/15 06:59:51;;;;;;;;;;;;;;;0.68;82.28;102482.31;4171305;28;20458;-66
2023/02/15 07:01:53;;;;;;;;;;;;;;;0.73;82.47;102487.44;4169853;28;20023;-65
2023/02/15 07:03:55;;;;;;;;;;;;;;;0.69;82.38;102479.59;4173481;28;20044;-66
2023/02/15 07:05:58;;;;;;;;;;;;;;;0.68;82.34;102490.28;4172004;28;20423;-66
2023/02/15 07:08:00;;;;;;;;;;;;;;;0.65;82.58;102482.47;4188389;28;19959;-66
2023/02/15 07:10:02;;;;;;;;;;;;;;;0.62;83.07;102486.09;4172951;28;20028;-65
2023/02/15 07:14:25;;;;;;;;;;;;;;;0.63;83.51;102479.00;4172382;28;20019;-66
2023/02/15 07:16:27;;;;;;;;;;;;;;;0.60;83.47;102480.00;4173217;28;20008;-66
2023/02/15 07:18:29;;;;;;;;;;;;;;;0.57;83.36;102476.63;4173359;28;20027;-66
2023/02/15 07:20:33;;;;;;;;;;;;;;;0.56;83.67;102478.41;4171876;28;20011;-66
2023/02/15 07:22:36;;;;;;;;;;;;;;;0.57;83.78;102481.94;4172386;28;20025;-66
2023/02/15 07:24:37;;;;;;;;;;;;;;;0.52;83.70;102479.50;4169754;28;20020;-66
2023/02/15 07:26:39;;;;;;;;;;;;;;;0.48;83.86;102483.22;4172876;28;20359;-66
2023/02/15 07:28:44;;;;;;;;;;;;;;;0.46;83.88;102482.44;4172588;28;20024;-66
2023/02/15 07:30:47;;;;;;;;;;;;;;;0.42;83.86;102478.16;4172749;28;20023;-66
2023/02/15 07:35:09;;;;;;;;;;;;;;;0.44;84.28;102470.97;4172069;28;20012;-66
2023/02/15 07:37:11;;;;;;;;;;;;;;;0.45;84.48;102464.75;4172808;28;20024;-66
2023/02/15 07:39:12;;;;;;;;;;;;;;;0.45;84.56;102454.97;4172957;28;20016;-66
2023/02/15 07:41:15;;;;;;;;;;;;;;;0.49;84.74;102455.72;4171293;28;21582;-66
2023/02/15 07:43:17;;;;;;;;;;;;;;;0.53;84.94;102446.63;4171582;28;20035;-66
2023/02/15 07:45:20;;;;;;;;;;;;;;;0.60;84.91;102444.59;4170109;28;20020;-66
2023/02/15 07:47:22;;;;;;;;;;;;;;;0.60;84.59;102444.59;4172228;28;20040;-66
2023/02/15 07:49:24;;;;;;;;;;;;;;;0.51;84.03;102441.38;4171575;28;20023;-66
2023/02/15 07:51:27;;;;;;;;;;;;;;;0.41;84.32;102434.78;4172229;28;20337;-66
2023/02/15 07:53:29;;;;;;;;;;;;;;;0.43;84.85;102440.03;4172875;28;20036;-66
2023/02/15 07:55:31;;;;;;;;;;;;;;;0.43;84.80;102440.03;4172511;28;20016;-66
2023/02/15 07:57:33;;;;;;;;;;;;;;;0.40;84.96;102435.69;4172658;28;20027;-66
2023/02/15 07:59:35;;;;;;;;;;;;;;;0.38;84.96;102442.91;4171994;28;20024;-66
2023/02/15 08:01:38;;;;;;;;;;;;;;;0.37;84.85;102442.97;4166665;28;20023;-66
2023/02/15 08:03:40;;;;;;;;;;;;;;;0.34;85.35;102444.81;4169264;28;20012;-66
2023/02/15 08:05:43;;;;;;;;;;;;;;;0.29;85.27;102432.66;4172034;28;20041;-66
2023/02/15 08:07:45;;;;;;;;;;;;;;;0.26;85.29;102428.34;4172218;28;20032;-64
2023/02/15 08:09:47;;;;;;;;;;;;;;;0.25;85.67;102437.28;4171372;28;20992;-64
2023/02/15 08:11:49;;;;;;;;;;;;;;;0.28;86.12;102438.91;4167565;28;20430;-64
2023/02/15 08:13:59;;;;;;;;;;;;;;;0.28;86.20;102437.13;4172306;28;20011;-64
2023/02/15 08:16:01;;;;;;;;;;;;;;;0.29;86.38;102435.31;4171292;28;20011;-64
2023/02/15 08:18:04;;;;;;;;;;;;;;;0.32;86.80;102433.38;4171904;28;20023;-65
2023/02/15 08:20:06;;;;;;;;;;;;;;;0.41;87.39;102434.78;4167817;28;20019;-65
2023/02/15 08:22:11;;;;;;;;;;;;;;;0.50;87.35;102436.16;4172006;28;20059;-64
2023/02/15 08:24:14;;;;;;;;;;;;;;;0.59;87.03;102434.88;4171096;28;20039;-64
2023/02/15 08:26:16;;;;;;;;;;;;;;;0.62;86.96;102435.59;4170580;28;21586;-64
2023/02/15 08:28:18;;;;;;;;;;;;;;;0.61;86.44;102436.53;4172510;28;20454;-67
2023/02/15 08:30:20;;;;;;;;;;;;;;;0.59;86.23;102435.72;4171302;28;20036;-66
2023/02/15 08:32:22;;;;;;;;;;;;;;;0.58;85.99;102439.34;4171567;28;20109;-66
2023/02/15 08:34:25;;;;;;;;;;;;;;;0.54;85.73;102425.28;4171497;28;20032;-64
2023/02/15 08:36:28;;;;;;;;;;;;;;;0.53;85.94;102426.25;4169730;28;20012;-66
2023/02/15 08:38:30;;;;;;;;;;;;;;;0.52;85.99;102436.97;4172156;28;20015;-65
2023/02/15 08:40:32;;;;;;;;;;;;;;;0.56;86.40;102430.53;4170764;28;20268;-67
2023/02/15 08:42:34;;;;;;;;;;;;;;;0.63;86.77;102428.50;4171488;28;20027;-67
2023/02/15 08:44:36;;;;;;;;;;;;;;;0.64;86.55;102417.78;4171755;28;20369;-64
2023/02/15 08:46:39;;;;;;;;;;;;;;;0.65;86.65;102415.97;4170301;28;20019;-67
2023/02/15 08:48:41;;;;;;;;;;;;;;;0.68;86.68;102413.19;4172495;28;20012;-66
2023/02/15 08:50:44;;;;;;;;;;;;;;;0.68;86.16;102410.50;4170989;28;20028;-66
2023/02/15 08:52:46;;;;;;;;;;;;;;;0.64;86.01;102409.81;4172038;28;20027;-66
2023/02/15 08:54:48;;;;;;;;;;;;;;;0.56;85.52;102405.75;4171797;28;20012;-66
2023/02/15 08:56:50;;;;;;;;;;;;;;;0.51;85.88;102403.31;4169577;28;20023;-67
2023/02/15 08:58:52;;;;;;;;;;;;;;;0.55;86.35;102399.59;4171976;28;20011;-64
2023/02/15 09:00:54;;;;;;;;;;;;;;;0.57;86.38;102400.38;4171312;28;20028;-64
2023/02/15 09:02:56;;;;;;;;;;;;;;;0.62;86.77;102390.38;4169836;28;20019;-66
2023/02/15 09:04:58;;;;;;;;;;;;;;;0.69;87.05;102390.94;4171426;28;20028;-66
2023/02/15 09:07:01;;;;;;;;;;;;;;;0.74;87.26;102386.28;4171271;28;20455;-66
2023/02/15 09:09:04;;;;;;;;;;;;;;;0.83;87.38;102393.84;4169135;28;20019;-66
2023/02/15 09:11:07;;;;;;;;;;;;;;;0.86;87.11;102390.16;4170900;28;20023;-65
2023/02/15 09:13:09;;;;;;;;;;;;;;;0.83;86.74;102387.63;4166019;28;20019;-66
2023/02/15 09:15:11;;;;;;;;;;;;;;;0.77;86.43;102380.84;4167207;28;20020;-65
2023/02/15 09:17:13;;;;;;;;;;;;;;;0.76;86.50;102379.09;4171483;28;20024;-66
2023/02/15 09:19:15;;;;;;;;;;;;;;;0.77;86.73;102379.94;4170402;28;20012;-66
2023/02/15 09:21:17;;;;;;;;;;;;;;;0.79;87.04;102381.59;4170862;28;20022;-65
2023/02/15 09:23:20;;;;;;;;;;;;;;;0.82;87.11;102385.94;4171352;28;20467;-65
2023/02/15 09:25:22;;;;;;;;;;;;;;;0.85;87.27;102380.47;4169833;28;20036;-66
2023/02/15 09:27:24;;;;;;;;;;;;;;;0.83;87.09;102382.31;4170881;28;20040;-66
2023/02/15 09:29:26;;;;;;;;;;;;;;;0.83;87.39;102380.53;4165550;28;20019;-65
2023/02/15 09:31:29;;;;;;;;;;;;;;;0.88;87.71;102381.16;4170932;28;20021;-66
2023/02/15 09:33:31;;;;;;;;;;;;;;;0.92;87.40;102386.34;4171055;28;20012;-66
2023/02/15 09:35:33;;;;;;;;;;;;;;;0.94;87.35;102388.00;4170131;28;20506;-67
2023/02/15 09:37:35;;;;;;;;;;;;;;;0.98;87.62;102384.25;4166209;28;20439;-66
2023/02/15 09:39:39;;;;;;;;;;;;;;;1.06;87.64;102386.53;4170321;28;20660;-63
2023/02/15 09:41:52;;;;;;;;;;;;;;;1.11;87.73;102386.31;4169454;28;20020;-66
2023/02/15 09:43:56;;;;;;;;;;;;;;;1.16;87.76;102386.94;4171224;28;20024;-66
2023/02/15 09:46:05;;;;;;;;;;;;;;;1.17;87.56;102383.34;4165504;28;20016;-66
2023/02/15 09:48:21;;;;;;;;;;;;;;;1.17;87.43;102384.19;4170855;28;20051;-66
2023/02/15 09:50:25;;;;;;;;;;;;;;;1.19;87.49;102384.13;4168921;28;20015;-66
2023/02/15 09:52:30;;;;;;;;;;;;;;;1.21;87.68;102383.13;4168649;28;20075;-66
2023/02/15 09:54:50;;;;;;;;;;;;;;;1.25;87.67;102389.16;4163574;28;20016;-65
2023/02/15 09:56:54;;;;;;;;;;;;;;;1.29;87.91;102385.41;4166507;28;20347;-65
2023/02/15 09:58:58;;;;;;;;;;;;;;;1.32;87.84;102376.41;4168868;28;20384;-63
2023/02/15 10:01:01;;;;;;;;;;;;;;;1.35;87.76;102371.78;4167206;28;20012;-65
2023/02/15 10:03:12;;;;;;;;;;;;;;;1.41;87.90;102373.25;4168399;28;20027;-66
2023/02/15 10:05:18;;;;;;;;;;;;;;;1.46;88.02;102373.03;4165689;28;20020;-66
2023/02/15 10:07:23;;;;;;;;;;;;;;;1.54;88.06;102373.53;4164188;28;20027;-63
2023/02/15 10:09:30;;;;;;;;;;;;;;;1.59;88.02;102363.50;4164329;28;20063;-65
2023/02/15 10:11:41;;;;;;;;;;;;;;;1.66;88.29;102364.88;4166975;28;20012;-65
2023/02/15 10:13:45;;;;;;;;;;;;;;;1.70;87.91;102368.28;4169464;28;20469;-65
2023/02/15 10:15:53;;;;;;;;;;;;;;;1.71;87.67;102362.88;4169560;28;20016;-65
2023/02/15 10:18:00;;;;;;;;;;;;;;;1.76;87.50;102368.81;4170557;28;20023;-66
2023/02/15 10:20:07;;;;;;;;;;;;;;;1.78;87.30;102366.91;4170373;28;20012;-65
2023/02/15 10:22:12;;;;;;;;;;;;;;;1.84;87.59;102360.41;4169338;28;20385;-65
2023/02/15 10:24:18;;;;;;;;;;;;;;;1.89;87.71;102358.38;4169236;28;20012;-65
2023/02/15 10:26:22;;;;;;;;;;;;;;;1.92;87.40;102366.19;4168894;28;20112;-65
2023/02/15 10:28:26;;;;;;;;;;;;;;;1.93;86.95;102359.09;4169985;28;20052;-66
2023/02/15 10:30:32;;;;;;;;;;;;;;;1.95;86.75;102354.53;4169181;28;20024;-65
2023/02/15 10:32:36;;;;;;;;;;;;;;;1.95;86.77;102350.06;4169665;28;20036;-66
2023/02/15 10:34:38;;;;;;;;;;;;;;;2.00;86.73;102355.13;4169260;28;20008;-66
2023/02/15 10:36:58;;;;;;;;;;;;;;;2.06;87.17;102351.28;4169765;28;20024;-64
2023/02/15 10:39:02;;;;;;;;;;;;;;;2.15;87.14;102343.66;4168432;28;20371;-66
2023/02/15 10:41:08;;;;;;;;;;;;;;;2.25;87.14;102337.84;4169115;28;20031;-66
2023/02/15 10:43:15;;;;;;;;;;;;;;;2.29;86.66;102334.06;4169625;28;20024;-66
2023/02/15 10:45:20;;;;;;;;;;;;;;;2.31;86.15;102337.50;4169336;28;20016;-66
2023/02/15 10:47:35;;;;;;;;;;;;;;;2.31;86.05;102326.84;4168789;28;20027;-67
2023/02/15 10:49:41;;;;;;;;;;;;;;;2.41;85.94;102328.03;4169053;28;20459;-67
2023/02/15 10:51:45;;;;;;;;;;;;;;;2.51;86.29;102325.75;4170503;28;20024;-68
2023/02/15 10:53:52;;;;;;;;;;;;;;;2.64;86.23;102320.56;4170062;28;20044;-66
2023/02/15 10:55:56;;;;;;;;;;;;;;;2.77;85.58;102326.91;4168899;28;20032;-65
2023/02/15 10:58:00;;;;;;;;;;;;;;;2.85;85.37;102323.81;4170286;28;20015;-66
2023/02/15 11:00:05;;;;;;;;;;;;;;;2.92;84.54;102319.84;4169158;28;20020;-67
2023/02/15 11:02:10;;;;;;;;;;;;;;;2.96;84.09;102312.50;4166778;28;20031;-66
2023/02/15 11:04:21;;;;;;;;;;;;;;;3.14;83.47;102315.94;4166659;28;20060;-66
2023/02/15 11:06:24;;;;;;;;;;;;;;;3.26;82.99;102315.22;4165197;28;20012;-63
2023/02/15 11:08:26;;;;;;;;;;;;;;;3.38;82.08;102317.13;4167748;28;20047;-66
2023/02/15 11:10:29;;;;;;;;;;;;;;;3.52;80.91;102316.31;4165081;28;20007;-64
2023/02/15 11:12:31;;;;;;;;;;;;;;;3.68;79.88;102316.25;4165672;28;20015;-66